createdAt,value
2018-08-17T00:00:58.759Z,19.80
2018-08-17T00:03:27.512Z,19.80
2018-08-17T00:05:56.198Z,19.80
2018-08-17T00:08:25.090Z,19.60
2018-08-17T00:10:53.969Z,19.60
2018-08-17T00:13:22.672Z,19.50
2018-08-17T00:15:51.333Z,19.50
2018-08-17T00:18:20.719Z,19.50
2018-08-17T00:20:49.854Z,19.50
2018-08-17T00:23:18.744Z,19.40
2018-08-17T00:25:47.696Z,19.30
2018-08-17T00:28:16.371Z,19.40
2018-08-17T00:30:46.055Z,19.30
2018-08-17T00:33:14.867Z,19.30
2018-08-17T00:35:43.740Z,19.30
2018-08-17T00:38:12.533Z,19.20
2018-08-17T00:40:41.159Z,19.20
2018-08-17T00:43:10.681Z,19.20
2018-08-17T00:45:39.341Z,19.20
2018-08-17T00:48:08.466Z,19.20
2018-08-17T00:50:37.154Z,19.20
2018-08-17T00:53:06.055Z,19.20
2018-08-17T00:55:34.763Z,19.20
2018-08-17T00:58:03.428Z,19.10
2018-08-17T01:00:32.270Z,19.10
2018-08-17T01:03:00.973Z,19.10
2018-08-17T01:05:29.712Z,19.00
2018-08-17T01:07:58.535Z,19.10
2018-08-17T01:10:27.397Z,19.00
2018-08-17T01:12:56.225Z,19.00
2018-08-17T01:15:24.906Z,19.10
2018-08-17T01:17:53.756Z,19.10
2018-08-17T01:20:22.372Z,19.10
2018-08-17T01:22:51.104Z,19.10
2018-08-17T01:25:19.753Z,19.10
2018-08-17T01:27:52.178Z,19.20
2018-08-17T01:30:20.916Z,19.20
2018-08-17T01:32:49.718Z,19.10
2018-08-17T01:35:18.619Z,19.00
2018-08-17T01:37:47.352Z,19.00
2018-08-17T01:40:16.323Z,18.90
2018-08-17T01:42:45.275Z,18.90
2018-08-17T01:45:14.487Z,18.80
2018-08-17T01:47:43.377Z,18.80
2018-08-17T01:50:12.420Z,18.80
2018-08-17T01:52:41.063Z,18.80
2018-08-17T01:55:11.603Z,18.80
2018-08-17T01:57:40.364Z,18.80
2018-08-17T02:00:10.386Z,18.80
2018-08-17T02:02:40.905Z,18.90
2018-08-17T02:05:10.179Z,18.90
2018-08-17T02:07:38.868Z,18.80
2018-08-17T02:10:09.940Z,18.80
2018-08-17T02:12:39.882Z,18.70
2018-08-17T02:15:09.871Z,18.70
2018-08-17T02:17:38.566Z,18.70
2018-08-17T02:20:07.253Z,18.60
2018-08-17T02:22:35.924Z,18.60
2018-08-17T02:25:04.712Z,18.50
2018-08-17T02:27:33.503Z,18.50
2018-08-17T02:30:02.167Z,18.50
2018-08-17T02:32:30.819Z,18.60
2018-08-17T02:34:59.528Z,18.70
2018-08-17T02:37:28.288Z,18.50
2018-08-17T02:39:57.096Z,18.50
2018-08-17T02:42:25.787Z,18.50
2018-08-17T02:44:54.493Z,18.50
2018-08-17T02:47:23.228Z,18.40
2018-08-17T02:49:51.929Z,18.40
2018-08-17T02:52:20.620Z,18.40
2018-08-17T02:54:49.248Z,18.40
2018-08-17T02:57:17.933Z,18.40
2018-08-17T02:59:46.892Z,18.40
2018-08-17T03:02:15.598Z,18.40
2018-08-17T03:04:44.497Z,18.30
2018-08-17T03:07:13.292Z,18.30
2018-08-17T03:09:41.993Z,18.30
2018-08-17T03:12:11.106Z,18.30
2018-08-17T03:14:40.280Z,18.30
2018-08-17T03:17:09.373Z,18.30
2018-08-17T03:19:41.036Z,18.20
2018-08-17T03:22:09.700Z,18.20
2018-08-17T03:24:38.324Z,18.20
2018-08-17T03:27:06.982Z,18.20
2018-08-17T03:29:35.689Z,18.20
2018-08-17T03:32:04.340Z,18.20
2018-08-17T03:34:32.993Z,18.20
2018-08-17T03:37:01.625Z,18.20
2018-08-17T03:39:30.253Z,18.30
2018-08-17T03:41:58.956Z,18.20
2018-08-17T03:44:27.684Z,18.20
2018-08-17T03:46:56.293Z,18.30
2018-08-17T03:49:24.952Z,18.30
2018-08-17T03:51:53.581Z,18.30
2018-08-17T03:54:22.233Z,18.20
2018-08-17T03:56:50.868Z,18.20
2018-08-17T03:59:19.528Z,18.20
2018-08-17T04:01:48.164Z,18.20
2018-08-17T04:04:16.852Z,18.20
2018-08-17T04:06:45.500Z,18.10
2018-08-17T04:09:14.175Z,18.10
2018-08-17T04:11:42.852Z,18.10
2018-08-17T04:14:11.528Z,18.00
2018-08-17T04:16:40.697Z,18.00
2018-08-17T04:19:09.347Z,18.00
2018-08-17T04:21:37.967Z,17.90
2018-08-17T04:24:06.656Z,18.00
2018-08-17T04:26:35.301Z,18.00
2018-08-17T04:29:03.939Z,18.10
2018-08-17T04:31:32.636Z,18.10
2018-08-17T04:34:01.272Z,18.10
2018-08-17T04:36:30.000Z,18.00
2018-08-17T04:38:58.667Z,18.00
2018-08-17T04:41:27.308Z,17.90
2018-08-17T04:43:55.971Z,17.90
2018-08-17T04:46:24.617Z,17.90
2018-08-17T04:48:53.286Z,17.80
2018-08-17T04:51:21.948Z,17.80
2018-08-17T04:53:50.573Z,17.80
2018-08-17T04:56:19.275Z,17.80
2018-08-17T04:58:47.923Z,17.80
2018-08-17T05:01:16.580Z,17.90
2018-08-17T05:03:45.235Z,17.90
2018-08-17T05:06:13.943Z,18.00
2018-08-17T05:08:42.659Z,18.10
2018-08-17T05:11:11.328Z,18.20
2018-08-17T05:13:39.972Z,18.10
2018-08-17T05:16:08.721Z,18.10
2018-08-17T05:18:37.413Z,18.20
2018-08-17T05:21:06.062Z,18.20
2018-08-17T05:23:34.713Z,18.20
2018-08-17T05:26:03.385Z,18.30
2018-08-17T05:28:32.097Z,18.30
2018-08-17T05:31:00.860Z,18.40
2018-08-17T05:33:29.508Z,18.40
2018-08-17T05:35:58.227Z,18.50
2018-08-17T05:38:27.088Z,18.70
2018-08-17T05:40:55.792Z,18.80
2018-08-17T05:43:24.439Z,19.20
2018-08-17T05:45:53.071Z,19.50
2018-08-17T05:48:21.723Z,19.80
2018-08-17T05:50:50.396Z,20.00
2018-08-17T05:53:19.046Z,20.20
2018-08-17T05:55:47.668Z,20.40
2018-08-17T05:58:16.342Z,20.50
2018-08-17T06:00:45.068Z,20.60
2018-08-17T06:03:13.738Z,20.80
2018-08-17T06:05:42.409Z,20.90
2018-08-17T06:08:11.067Z,21.10
2018-08-17T06:10:39.732Z,21.10
2018-08-17T06:13:08.418Z,21.20
2018-08-17T06:15:44.441Z,21.20
2018-08-17T06:18:13.126Z,21.30
2018-08-17T06:20:41.811Z,21.30
2018-08-17T06:23:11.188Z,21.40
2018-08-17T06:25:39.879Z,21.70
2018-08-17T06:28:08.508Z,21.90
2018-08-17T06:30:37.173Z,22.20
2018-08-17T06:38:03.726Z,23.00
2018-08-17T06:40:32.365Z,23.50
2018-08-17T06:43:01.016Z,23.90
2018-08-17T06:45:29.652Z,24.30
2018-08-17T06:47:58.288Z,24.70
2018-08-17T06:50:26.908Z,25.10
2018-08-17T06:52:57.753Z,25.40
2018-08-17T06:55:26.373Z,25.60
2018-08-17T06:57:54.971Z,25.70
2018-08-17T07:00:23.583Z,25.70
2018-08-17T07:02:52.209Z,25.70
2018-08-17T07:05:20.832Z,25.60
2018-08-17T07:07:49.451Z,25.40
2018-08-17T07:10:18.120Z,25.30
2018-08-17T07:12:46.803Z,25.20
2018-08-17T07:15:15.419Z,25.30
2018-08-17T07:17:44.046Z,25.40
2018-08-17T07:20:13.484Z,25.70
2018-08-17T07:22:42.612Z,26.10
2018-08-17T07:25:11.240Z,26.40
2018-08-17T07:27:39.860Z,26.40
2018-08-17T07:30:09.379Z,26.60
2018-08-17T07:32:38.131Z,26.70
2018-08-17T07:35:08.752Z,26.90
2018-08-17T07:38:03.452Z,27.20
2018-08-17T07:40:32.188Z,27.20
2018-08-17T07:43:00.877Z,27.30
2018-08-17T07:45:29.547Z,27.50
2018-08-17T07:47:58.287Z,27.70
2018-08-17T07:50:26.916Z,28.00
2018-08-17T07:52:55.572Z,28.10
2018-08-17T07:55:24.236Z,28.20
2018-08-17T07:57:52.888Z,28.10
2018-08-17T08:00:21.552Z,27.90
2018-08-17T08:02:50.249Z,27.90
2018-08-17T08:05:18.916Z,27.80
2018-08-17T08:07:47.631Z,27.70
2018-08-17T08:10:16.312Z,27.60
2018-08-17T08:12:45.917Z,27.50
2018-08-17T08:15:14.580Z,27.40
2018-08-17T08:17:43.655Z,27.20
2018-08-17T08:20:23.844Z,27.20
2018-08-17T08:23:03.455Z,27.30
2018-08-17T08:25:32.089Z,27.40
2018-08-17T08:28:01.498Z,27.60
2018-08-17T08:30:30.201Z,27.60
2018-08-17T08:33:00.348Z,27.80
2018-08-17T08:35:29.048Z,28.00
2018-08-17T08:37:57.814Z,28.10
2018-08-17T08:40:27.628Z,28.30
2018-08-17T08:42:56.342Z,28.50
2018-08-17T08:45:28.098Z,28.60
2018-08-17T08:47:56.804Z,28.80
2018-08-17T08:50:26.347Z,29.00
2018-08-17T08:52:55.091Z,29.10
2018-08-17T08:55:23.738Z,29.10
2018-08-17T08:57:52.420Z,29.00
2018-08-17T09:00:21.249Z,29.10
2018-08-17T09:02:49.893Z,29.10
2018-08-17T09:05:18.601Z,29.10
2018-08-17T09:07:47.272Z,29.10
2018-08-17T09:10:16.061Z,29.10
2018-08-17T09:12:44.723Z,29.10
2018-08-17T09:15:13.429Z,29.10
2018-08-17T09:17:42.980Z,28.90
2018-08-17T09:20:17.841Z,28.50
2018-08-17T09:22:48.502Z,28.20
2018-08-17T09:25:17.174Z,27.80
2018-08-17T09:27:45.827Z,27.50
2018-08-17T09:30:15.082Z,27.20
2018-08-17T09:32:43.716Z,26.90
2018-08-17T09:35:13.173Z,26.70
2018-08-17T09:37:43.567Z,26.60
2018-08-17T09:40:12.454Z,26.40
2018-08-17T09:42:41.096Z,26.30
2018-08-17T09:45:11.876Z,26.10
2018-08-17T09:47:40.576Z,26.00
2018-08-17T09:50:12.596Z,25.90
2018-08-17T09:52:41.375Z,25.90
2018-08-17T09:55:14.579Z,25.80
2018-08-17T09:57:44.367Z,25.90
2018-08-17T10:00:13.892Z,25.90
2018-08-17T10:02:48.200Z,26.10
2018-08-17T10:05:24.568Z,26.10
2018-08-17T10:08:13.836Z,26.20
2018-08-17T10:10:43.455Z,26.30
2018-08-17T10:13:12.137Z,26.40
2018-08-17T10:15:40.861Z,26.40
2018-08-17T10:18:09.555Z,26.50
2018-08-17T10:20:38.266Z,26.50
2018-08-17T10:23:39.348Z,26.60
2018-08-17T10:26:08.095Z,26.70
2018-08-17T10:28:36.919Z,26.70
2018-08-17T10:31:05.600Z,26.80
2018-08-17T10:33:34.219Z,26.90
2018-08-17T10:36:02.824Z,27.00
2018-08-17T10:38:31.492Z,27.20
2018-08-17T10:41:00.407Z,27.40
2018-08-17T10:43:29.608Z,27.60
2018-08-17T10:45:58.224Z,27.70
2018-08-17T10:48:27.304Z,27.70
2018-08-17T10:50:56.347Z,27.70
2018-08-17T10:53:38.034Z,27.70
2018-08-17T10:56:06.703Z,27.60
2018-08-17T10:58:35.924Z,27.50
2018-08-17T11:01:05.056Z,27.50
2018-08-17T11:03:33.685Z,27.60
2018-08-17T11:06:02.444Z,27.50
2018-08-17T11:08:32.332Z,27.50
2018-08-17T11:11:01.313Z,27.50
2018-08-17T11:13:32.065Z,27.50
2018-08-17T11:16:00.832Z,27.50
2018-08-17T11:18:29.444Z,27.50
2018-08-17T11:20:59.680Z,27.60
2018-08-17T11:23:28.347Z,27.60
2018-08-17T11:25:59.592Z,27.70
2018-08-17T11:28:29.520Z,27.70
2018-08-17T11:30:58.208Z,27.80
2018-08-17T11:33:28.674Z,27.80
2018-08-17T11:35:57.741Z,27.90
2018-08-17T11:38:26.733Z,28.00
2018-08-17T11:40:55.400Z,28.00
2018-08-17T11:43:25.784Z,28.10
2018-08-17T11:45:55.501Z,28.10
2018-08-17T11:48:29.434Z,28.20
2018-08-17T11:50:58.135Z,28.30
2018-08-17T11:53:26.849Z,28.30
2018-08-17T11:55:56.537Z,28.30
2018-08-17T11:58:25.136Z,28.30
2018-08-17T12:00:53.781Z,28.40
2018-08-17T12:03:22.380Z,28.40
2018-08-17T12:05:51.027Z,28.50
2018-08-17T12:08:19.691Z,28.40
2018-08-17T12:11:19.020Z,28.40
2018-08-17T12:13:47.730Z,28.40
2018-08-17T12:16:16.356Z,28.30
2018-08-17T12:18:45.142Z,28.30
2018-08-17T12:21:13.892Z,28.30
2018-08-17T12:23:42.508Z,28.40
2018-08-17T12:26:11.137Z,28.30
2018-08-17T12:28:40.262Z,28.30
2018-08-17T12:31:09.026Z,28.30
2018-08-17T12:33:38.956Z,28.20
2018-08-17T12:36:08.420Z,28.10
2018-08-17T12:38:37.456Z,28.10
2018-08-17T12:41:06.167Z,28.00
2018-08-17T12:43:36.704Z,28.00
2018-08-17T12:46:05.352Z,27.90
2018-08-17T12:48:33.976Z,28.00
2018-08-17T12:51:07.550Z,27.90
2018-08-17T12:53:36.404Z,28.00
2018-08-17T12:56:05.200Z,28.00
2018-08-17T12:58:33.800Z,27.90
2018-08-17T13:01:02.408Z,27.90
2018-08-17T13:03:31.220Z,27.80
2018-08-17T13:05:59.848Z,27.70
2018-08-17T13:08:28.476Z,27.60
2018-08-17T13:10:59.462Z,27.50
2018-08-17T13:13:28.050Z,27.50
2018-08-17T13:16:02.012Z,27.50
2018-08-17T13:18:32.884Z,27.40
2018-08-17T13:21:01.784Z,27.40
2018-08-17T13:23:30.405Z,27.40
2018-08-17T13:26:03.352Z,27.40
2018-08-17T13:28:32.118Z,27.30
2018-08-17T13:31:02.636Z,27.30
2018-08-17T13:33:35.457Z,27.20
2018-08-17T13:36:05.200Z,27.10
2018-08-17T13:38:34.449Z,27.10
2018-08-17T13:41:03.853Z,27.10
2018-08-17T13:43:33.772Z,27.10
2018-08-17T13:46:03.845Z,27.00
2018-08-17T13:48:32.761Z,26.90
2018-08-17T13:51:03.808Z,26.90
2018-08-17T13:53:33.012Z,26.80
2018-08-17T13:56:01.845Z,26.80
2018-08-17T13:58:32.837Z,26.60
2018-08-17T14:01:08.410Z,26.60
2018-08-17T14:03:37.452Z,26.60
2018-08-17T14:06:07.460Z,26.60
2018-08-17T14:08:41.361Z,26.70
2018-08-17T14:11:11.100Z,26.80
2018-08-17T14:13:43.672Z,26.80
2018-08-17T14:16:14.533Z,26.80
2018-08-17T14:18:44.335Z,26.70
2018-08-17T14:21:14.364Z,26.70
2018-08-17T14:23:43.468Z,26.60
2018-08-17T14:26:15.822Z,26.60
2018-08-17T14:28:44.654Z,26.40
2018-08-17T14:31:14.444Z,26.30
2018-08-17T14:33:43.680Z,26.30
2018-08-17T14:36:13.436Z,26.20
2018-08-17T14:38:45.801Z,26.20
2018-08-17T14:41:14.712Z,26.20
2018-08-17T14:43:43.843Z,26.30
2018-08-17T14:46:13.693Z,26.30
2018-08-17T14:48:42.295Z,26.40
2018-08-17T14:51:11.284Z,26.40
2018-08-17T14:53:39.887Z,26.40
2018-08-17T14:56:10.528Z,26.50
2018-08-17T14:58:40.252Z,26.50
2018-08-17T15:01:12.454Z,26.40
2018-08-17T15:03:41.172Z,26.40
2018-08-17T15:06:09.840Z,26.40
2018-08-17T15:08:38.529Z,26.60
2018-08-17T15:11:07.160Z,26.50
2018-08-17T15:13:36.034Z,26.50
2018-08-17T15:16:09.268Z,26.50
2018-08-17T15:18:39.618Z,26.50
2018-08-17T15:21:08.700Z,26.50
2018-08-17T15:23:39.314Z,26.60
2018-08-17T15:26:08.695Z,26.60
2018-08-17T15:28:40.844Z,26.60
2018-08-17T15:31:10.047Z,26.60
2018-08-17T15:33:43.204Z,26.60
2018-08-17T15:36:15.239Z,26.60
2018-08-17T15:38:44.496Z,26.60
2018-08-17T15:41:13.255Z,26.60
2018-08-17T15:43:43.560Z,26.60
2018-08-17T15:46:13.127Z,26.60
2018-08-17T15:48:57.688Z,26.60
2018-08-17T15:51:27.229Z,26.60
2018-08-17T15:53:59.680Z,26.60
2018-08-17T15:56:29.121Z,26.50
2018-08-17T15:58:58.968Z,26.40
2018-08-17T16:01:27.708Z,26.40
2018-08-17T16:03:56.384Z,26.40
2018-08-17T16:06:25.344Z,26.40
2018-08-17T16:08:54.343Z,26.50
2018-08-17T16:11:23.644Z,26.50
2018-08-17T16:13:52.264Z,26.60
2018-08-17T16:16:20.913Z,26.70
2018-08-17T16:18:55.243Z,26.70
2018-08-17T16:21:25.716Z,26.80
2018-08-17T16:23:54.315Z,26.80
2018-08-17T16:26:23.305Z,27.00
2018-08-17T16:28:52.596Z,27.10
2018-08-17T16:31:21.195Z,27.10
2018-08-17T16:33:49.809Z,27.10
2018-08-17T16:36:18.396Z,27.20
2018-08-17T16:38:47.534Z,27.20
2018-08-17T16:41:16.483Z,27.20
2018-08-17T16:43:47.008Z,27.20
2018-08-17T16:46:16.775Z,27.30
2018-08-17T16:48:45.682Z,27.30
2018-08-17T16:51:14.372Z,27.40
2018-08-17T16:53:44.041Z,27.40
2018-08-17T16:56:13.588Z,27.30
2018-08-17T16:58:42.196Z,27.20
2018-08-17T17:01:10.810Z,27.20
2018-08-17T17:03:41.949Z,27.10
2018-08-17T17:06:10.628Z,27.10
2018-08-17T17:08:43.183Z,27.10
2018-08-17T17:11:12.356Z,27.00
2018-08-17T17:13:43.356Z,26.90
2018-08-17T17:16:12.428Z,26.90
2018-08-17T17:18:44.275Z,26.80
2018-08-17T17:21:14.443Z,26.80
2018-08-17T17:23:51.868Z,26.70
2018-08-17T17:26:20.732Z,26.70
2018-08-17T17:28:49.336Z,26.70
2018-08-17T17:31:18.024Z,26.70
2018-08-17T17:33:46.632Z,26.60
2018-08-17T17:36:17.066Z,26.70
2018-08-17T17:38:46.474Z,26.70
2018-08-17T17:41:15.819Z,26.60
2018-08-17T17:43:45.908Z,26.60
2018-08-17T17:46:14.584Z,26.60
2018-08-17T17:48:43.245Z,26.60
2018-08-17T17:51:12.643Z,26.60
2018-08-17T17:53:43.084Z,26.50
2018-08-17T17:56:14.076Z,26.40
2018-08-17T17:58:42.681Z,26.40
2018-08-17T18:01:11.363Z,26.40
2018-08-17T18:03:44.781Z,26.40
2018-08-17T18:06:18.287Z,26.40
2018-08-17T18:08:46.896Z,26.30
2018-08-17T18:11:15.990Z,26.20
2018-08-17T18:13:44.672Z,26.10
2018-08-17T18:16:13.391Z,26.10
2018-08-17T18:18:42.172Z,26.00
2018-08-17T18:21:10.832Z,26.00
2018-08-17T18:23:39.483Z,26.00
2018-08-17T18:26:15.800Z,25.90
2018-08-17T18:28:44.448Z,25.80
2018-08-17T18:31:13.088Z,25.80
2018-08-17T18:33:41.700Z,25.80
2018-08-17T18:36:10.384Z,25.80
2018-08-17T18:38:38.984Z,25.80
2018-08-17T18:41:07.744Z,25.80
2018-08-17T18:43:36.371Z,25.80
2018-08-17T18:46:04.995Z,25.80
2018-08-17T18:48:34.984Z,25.70
2018-08-17T18:51:03.681Z,25.70
2018-08-17T18:53:32.562Z,25.60
2018-08-17T18:56:01.199Z,25.60
2018-08-17T18:58:29.824Z,25.50
2018-08-17T19:00:58.459Z,25.50
2018-08-17T19:03:27.072Z,25.40
2018-08-17T19:05:55.688Z,25.30
2018-08-17T19:08:25.211Z,25.30
2018-08-17T19:10:54.606Z,25.20
2018-08-17T19:13:27.275Z,25.10
2018-08-17T19:15:58.877Z,25.10
2018-08-17T19:18:33.081Z,25.10
2018-08-17T19:21:09.940Z,25.00
2018-08-17T19:23:41.292Z,25.10
2018-08-17T19:26:13.152Z,25.00
2018-08-17T19:28:51.761Z,25.00
2018-08-17T19:31:21.536Z,24.90
2018-08-17T19:33:52.902Z,24.90
2018-08-17T19:36:22.696Z,24.90
2018-08-17T19:38:51.488Z,24.90
2018-08-17T19:41:23.074Z,24.90
2018-08-17T19:43:54.638Z,24.90
2018-08-17T19:46:27.250Z,24.90
2018-08-17T19:49:25.211Z,24.90
2018-08-17T19:51:57.981Z,25.00
2018-08-17T19:54:31.580Z,24.90
2018-08-17T19:57:00.180Z,24.90
2018-08-17T19:59:28.939Z,24.90
2018-08-17T20:01:58.183Z,24.90
2018-08-17T20:04:27.031Z,24.90
2018-08-17T20:06:55.680Z,24.80
2018-08-17T20:09:24.289Z,24.80
2018-08-17T20:11:52.948Z,24.70
2018-08-17T20:14:21.589Z,24.70
2018-08-17T20:16:50.208Z,24.70
2018-08-17T20:19:18.877Z,24.60
2018-08-17T20:21:47.948Z,24.60
2018-08-17T20:24:16.929Z,24.60
2018-08-17T20:26:46.866Z,24.50
2018-08-17T20:29:15.600Z,24.40
2018-08-17T20:31:44.948Z,24.20
2018-08-17T20:34:14.015Z,24.10
2018-08-17T20:36:43.003Z,24.10
2018-08-17T20:39:13.885Z,24.10
2018-08-17T20:41:42.521Z,24.10
2018-08-17T20:44:11.228Z,24.10
2018-08-17T20:46:39.852Z,24.10
2018-08-17T20:49:08.545Z,24.00
2018-08-17T20:51:45.263Z,24.00
2018-08-17T20:54:13.928Z,23.90
2018-08-17T20:56:42.588Z,23.80
2018-08-17T20:59:11.183Z,23.80
2018-08-17T21:01:39.873Z,23.80
2018-08-17T21:04:09.537Z,23.70
2018-08-17T21:06:38.175Z,23.70
2018-08-17T21:09:08.111Z,23.60
2018-08-17T21:11:36.927Z,23.60
2018-08-17T21:14:05.499Z,23.50
2018-08-17T21:16:34.670Z,23.40
2018-08-17T21:19:03.743Z,23.30
2018-08-17T21:21:33.513Z,23.30
2018-08-17T21:24:02.161Z,23.20
2018-08-17T21:26:32.323Z,23.10
2018-08-17T21:29:02.773Z,23.10
2018-08-17T21:31:31.903Z,23.00
2018-08-17T21:34:01.132Z,23.00
2018-08-17T21:36:30.513Z,23.00
2018-08-17T21:39:13.947Z,23.00
2018-08-17T21:41:44.787Z,22.90
2018-08-17T21:44:16.155Z,22.80
2018-08-17T21:47:05.743Z,22.80
2018-08-17T21:49:35.659Z,22.80
2018-08-17T21:52:23.828Z,22.80
2018-08-17T21:54:52.448Z,22.70
2018-08-17T21:57:21.132Z,22.60
2018-08-17T21:59:51.842Z,22.50
2018-08-17T22:02:22.193Z,22.50
2018-08-17T22:04:51.150Z,22.40
2018-08-17T22:07:23.109Z,22.40
2018-08-17T22:09:52.957Z,22.40
2018-08-17T22:12:23.229Z,22.30
2018-08-17T22:14:52.485Z,22.30
2018-08-17T22:17:34.158Z,22.30
2018-08-17T22:20:06.257Z,22.60
2018-08-17T22:22:35.095Z,22.30
2018-08-17T22:25:05.372Z,22.30
2018-08-17T22:27:35.182Z,22.30
2018-08-17T22:30:06.766Z,22.30
2018-08-17T22:32:36.143Z,22.30
2018-08-17T22:35:04.987Z,22.20
2018-08-17T22:37:33.703Z,22.30
2018-08-17T22:40:02.344Z,22.20
2018-08-17T22:42:31.050Z,22.20
2018-08-17T22:44:59.975Z,22.30
2018-08-17T22:47:28.796Z,22.30
2018-08-17T22:49:59.020Z,22.40
2018-08-17T22:52:30.064Z,22.40
2018-08-17T22:55:00.772Z,22.40
2018-08-17T22:57:31.351Z,22.50
2018-08-17T23:00:13.049Z,22.60
2018-08-17T23:02:43.240Z,22.60
2018-08-17T23:05:13.653Z,22.60
2018-08-17T23:07:42.640Z,22.60
2018-08-17T23:10:16.397Z,22.60
2018-08-17T23:12:46.315Z,22.60
2018-08-17T23:15:17.969Z,22.50
2018-08-17T23:17:49.731Z,22.50
2018-08-17T23:20:23.983Z,22.50
2018-08-17T23:22:54.019Z,22.40
2018-08-17T23:25:22.708Z,22.40
2018-08-17T23:27:51.699Z,22.30
2018-08-17T23:30:20.794Z,22.50
2018-08-17T23:32:52.507Z,22.60
2018-08-17T23:35:21.269Z,22.60
2018-08-17T23:37:50.168Z,22.60
2018-08-17T23:40:18.870Z,22.60
2018-08-17T23:42:47.863Z,22.60
2018-08-17T23:45:17.426Z,22.70
2018-08-17T23:47:46.292Z,22.70
2018-08-17T23:50:15.732Z,22.70
2018-08-17T23:52:44.875Z,22.70
2018-08-17T23:55:16.917Z,22.70
2018-08-17T23:57:45.550Z,22.80
